Time;durP1;ratioP1;P1;durP2;ratioP2;P2;SDS_P1;SDS_P2;PMS_P1;PMS_P2;Temp;Humidity;BMP_temperature;BMP_pressure;BME280_temperature;BME280_humidity;BME280_pressure;Samples;Min_cycle;Max_cycle;Signal;HPM_P1;HPM_P2
2022/01/23 00:01:54;;;;;;;35.47;25.60;;;;;;;4.93;100.00;103583.13;5074964;28;20044;-36
2022/01/23 00:04:19;;;;;;;32.58;25.73;;;;;;;4.88;100.00;103576.34;5075286;28;20101;-37
2022/01/23 00:06:48;;;;;;;33.27;24.90;;;;;;;4.90;100.00;103574.38;5074680;28;20024;-37
2022/01/23 00:09:16;;;;;;;30.45;25.30;;;;;;;4.89;100.00;103564.63;5075404;28;20063;-37
2022/01/23 00:11:49;;;;;;;31.98;24.98;;;;;;;4.90;100.00;103569.00;5074523;28;20074;-37
2022/01/23 00:19:41;;;;;;;31.27;23.80;;;;;;;4.94;100.00;103577.66;5074690;28;20036;-37
2022/01/23 00:22:09;;;;;;;32.23;25.27;;;;;;;4.89;100.00;103570.00;5074619;28;20074;-37
2022/01/23 00:32:47;;;;;;;28.40;23.25;;;;;;;4.84;100.00;103550.75;5074130;28;20053;-37
2022/01/23 00:35:12;;;;;;;28.50;22.53;;;;;;;4.94;100.00;103556.19;5074084;28;20465;-37
2022/01/23 00:37:38;;;;;;;30.47;23.33;;;;;;;4.90;100.00;103560.97;5074699;28;20263;-36
2022/01/23 00:40:05;;;;;;;30.33;24.20;;;;;;;4.89;100.00;103556.59;5074254;28;20024;-37
2022/01/23 00:42:30;;;;;;;28.80;23.08;;;;;;;4.90;100.00;103552.06;5074407;28;20033;-37
2022/01/23 00:45:06;;;;;;;30.87;24.47;;;;;;;4.67;100.00;103521.78;5074346;28;20032;-37
2022/01/23 00:47:32;;;;;;;32.78;24.50;;;;;;;4.77;100.00;103541.50;5073650;28;20366;-37
2022/01/23 00:49:57;;;;;;;29.08;22.73;;;;;;;4.87;100.00;103555.84;5074119;28;20040;-37
2022/01/23 00:52:23;;;;;;;31.20;23.77;;;;;;;4.87;100.00;103552.31;5073867;28;20107;-36
2022/01/23 00:54:50;;;;;;;30.17;22.23;;;;;;;4.87;100.00;103550.47;5089651;28;20111;-37
2022/01/23 00:57:16;;;;;;;30.55;22.90;;;;;;;4.86;100.00;103550.63;5073451;28;20036;-37
2022/01/23 00:59:41;;;;;;;32.00;23.23;;;;;;;4.81;100.00;103528.69;5073483;28;20044;-37
2022/01/23 01:02:06;;;;;;;27.90;22.43;;;;;;;4.86;100.00;103538.06;5073201;28;20079;-37
2022/01/23 01:04:32;;;;;;;30.13;23.70;;;;;;;4.85;100.00;103540.88;5073156;28;20024;-37
2022/01/23 01:06:57;;;;;;;29.20;22.47;;;;;;;4.80;100.00;103527.00;5073352;28;20024;-37
2022/01/23 01:09:22;;;;;;;28.27;22.67;;;;;;;4.72;100.00;103516.06;5073169;28;20064;-37
2022/01/23 01:11:59;;;;;;;30.23;21.87;;;;;;;4.87;100.00;103546.94;5073553;28;20067;-37
2022/01/23 01:33:09;;;;;;;26.35;21.58;;;;;;;4.93;100.00;103553.63;5073140;28;20048;-37
2022/01/23 01:35:53;;;;;;;28.75;22.73;;;;;;;4.77;100.00;103536.13;5073152;28;20032;-37
2022/01/23 01:38:19;;;;;;;27.60;20.52;;;;;;;4.93;100.00;103550.94;5073510;28;20028;-37
2022/01/23 01:40:44;;;;;;;27.80;20.17;;;;;;;4.87;100.00;103545.13;5072965;28;20039;-37
2022/01/23 01:43:10;;;;;;;30.58;22.40;;;;;;;4.89;100.00;103548.53;5072600;28;20087;-36
2022/01/23 01:45:36;;;;;;;26.52;20.52;;;;;;;4.84;100.00;103548.06;5073115;28;20029;-36
2022/01/23 01:48:03;;;;;;;27.55;21.02;;;;;;;4.91;100.00;103562.66;5073504;28;20081;-37
2022/01/23 01:50:31;;;;;;;26.20;21.42;;;;;;;4.88;100.00;103556.69;5073474;28;20029;-37
2022/01/23 01:52:57;;;;;;;26.33;20.70;;;;;;;4.93;100.00;103561.66;5073777;28;20035;-37
2022/01/23 01:55:29;;;;;;;26.58;20.77;;;;;;;4.83;100.00;103550.84;5072859;28;20032;-37
2022/01/23 01:58:01;;;;;;;27.52;19.85;;;;;;;4.98;100.00;103562.13;5073076;28;20349;-37
2022/01/23 02:08:26;;;;;;;28.30;21.05;;;;;;;5.03;100.00;103570.69;5073042;28;20059;-37
2022/01/23 02:11:07;;;;;;;26.40;20.38;;;;;;;5.03;100.00;103563.47;5073464;28;20037;-37
2022/01/23 02:13:38;;;;;;;24.48;19.60;;;;;;;5.04;100.00;103556.28;5072642;28;20024;-37
2022/01/23 02:22:30;;;;;;;29.38;21.80;;;;;;;4.96;99.91;103539.97;5072558;28;20119;-36
2022/01/23 02:51:54;;;;;;;24.95;18.95;;;;;;;5.04;100.00;103522.28;5076704;28;20066;-37
2022/01/23 02:56:51;;;;;;;24.95;19.88;;;;;;;5.04;100.00;103521.41;5076394;28;20044;-36
2022/01/23 02:59:23;;;;;;;29.65;20.17;;;;;;;4.99;100.00;103518.28;5075679;28;20071;-37
2022/01/23 03:04:24;;;;;;;24.48;19.05;;;;;;;5.01;99.75;103519.84;5076503;28;20036;-37
2022/01/23 03:07:09;;;;;;;23.90;18.43;;;;;;;4.99;100.00;103516.44;5075644;28;20111;-37
2022/01/23 03:25:44;;;;;;;26.65;17.95;;;;;;;4.93;100.00;103540.22;5075314;28;20054;-36
2022/01/23 03:28:20;;;;;;;21.67;16.55;;;;;;;5.00;100.00;103541.44;5075233;28;20037;-37
2022/01/23 03:33:31;;;;;;;24.55;17.92;;;;;;;4.91;100.00;103538.53;5075466;28;20579;-37
2022/01/23 03:35:56;;;;;;;24.65;18.00;;;;;;;4.94;100.00;103542.78;5075237;28;20111;-36
2022/01/23 03:38:22;;;;;;;22.80;17.77;;;;;;;4.73;100.00;103497.16;5074990;28;20182;-37
2022/01/23 03:40:47;;;;;;;24.23;18.10;;;;;;;4.94;100.00;103541.94;5075552;28;20020;-36
2022/01/23 03:43:15;;;;;;;24.80;17.83;;;;;;;4.91;100.00;103538.53;5075011;28;20028;-37
2022/01/23 03:50:37;;;;;;;24.17;17.30;;;;;;;4.96;100.00;103545.34;5074931;28;20119;-37
2022/01/23 03:53:03;;;;;;;26.67;17.87;;;;;;;4.93;100.00;103545.59;5074881;28;20054;-37
2022/01/23 03:55:28;;;;;;;26.48;18.33;;;;;;;4.98;100.00;103543.38;5073589;28;20040;-36
2022/01/23 03:57:53;;;;;;;26.47;17.67;;;;;;;4.91;100.00;103549.25;5075044;28;20440;-37
2022/01/23 04:00:19;;;;;;;21.73;16.90;;;;;;;4.85;100.00;103552.44;5074888;28;20029;-37
2022/01/23 04:02:44;;;;;;;25.87;18.80;;;;;;;4.61;100.00;103527.66;5074620;28;20021;-40
2022/01/23 04:05:10;;;;;;;23.27;17.58;;;;;;;4.87;100.00;103557.69;5074373;28;20477;-37
2022/01/23 04:07:36;;;;;;;24.23;18.20;;;;;;;4.88;100.00;103556.69;5074667;28;20029;-37
2022/01/23 04:10:02;;;;;;;;;;;;;;;4.95;100.00;103557.91;5074937;28;20258;-36
2022/01/23 04:15:04;;;;;;;24.70;17.50;;;;;;;4.94;100.00;103556.19;5075103;28;20123;-37
2022/01/23 04:33:49;;;;;;;25.38;17.98;;;;;;;5.03;100.00;103558.13;5074748;28;20059;-36
2022/01/23 04:48:31;;;;;;;27.48;18.63;;;;;;;4.87;100.00;103555.00;5073986;28;20036;-37
2022/01/23 05:01:14;;;;;;;25.67;18.98;;;;;;;4.86;100.00;103559.50;5073559;28;20082;-37
2022/01/23 05:06:27;;;;;;;26.48;18.48;;;;;;;4.86;100.00;103555.97;5073379;28;20044;-37
2022/01/23 05:08:53;;;;;;;27.13;18.80;;;;;;;4.84;100.00;103552.59;5073287;28;20051;-37
2022/01/23 05:11:18;;;;;;;24.55;19.05;;;;;;;4.86;100.00;103556.81;5073174;28;20388;-36
2022/01/23 05:13:44;;;;;;;28.00;19.85;;;;;;;4.70;100.00;103524.22;5073203;28;20436;-37
2022/01/23 05:16:11;;;;;;;27.25;19.48;;;;;;;4.85;100.00;103557.81;5073107;28;20111;-36
2022/01/23 05:18:37;;;;;;;28.15;19.58;;;;;;;4.80;100.00;103551.13;5073108;28;20105;-37
2022/01/23 05:21:39;;;;;;;30.00;22.13;;;;;;;4.67;100.00;103561.16;5071737;28;20044;-36
2022/01/23 05:23:50;;;;;;;26.10;19.25;;;;;;;4.63;100.00;103556.03;5073288;28;20167;-36
2022/01/23 05:26:15;;;;;;;20.97;17.30;;;;;;;4.52;100.00;103523.06;5073006;28;20408;-37
2022/01/23 05:28:40;;;;;;;26.03;18.93;;;;;;;4.69;100.00;103562.75;5073414;28;20025;-37
2022/01/23 05:31:06;;;;;;;25.67;18.73;;;;;;;4.70;100.00;103567.13;5073600;28;20063;-37
2022/01/23 05:33:31;;;;;;;25.10;19.10;;;;;;;4.71;100.00;103567.97;5073086;28;20047;-37
2022/01/23 05:35:57;;;;;;;27.60;20.23;;;;;;;4.75;100.00;103564.06;5073577;28;20037;-36
2022/01/23 05:38:22;;;;;;;25.17;19.37;;;;;;;4.59;100.00;103537.69;5073161;28;20119;-36
2022/01/23 05:40:55;;;;;;;25.40;19.57;;;;;;;4.79;100.00;103565.53;5073072;28;20025;-37
2022/01/23 05:43:21;;;;;;;28.52;20.55;;;;;;;4.74;100.00;103563.22;5072969;28;20029;-37
2022/01/23 05:45:46;;;;;;;28.02;20.23;;;;;;;4.67;100.00;103558.47;5072408;28;20491;-37
2022/01/23 05:48:12;;;;;;;30.90;20.63;;;;;;;4.74;100.00;103568.56;5073515;28;20032;-37
2022/01/23 05:50:37;;;;;;;26.63;20.43;;;;;;;4.69;100.00;103569.94;5073052;28;20077;-36
2022/01/23 05:53:02;;;;;;;21.73;15.57;;;;;;;4.81;100.00;103569.75;5072461;28;20089;-37
2022/01/23 05:55:28;;;;;;;24.80;19.50;;;;;;;4.67;100.00;103545.91;5072702;28;20426;-36
2022/01/23 05:57:53;;;;;;;25.40;19.77;;;;;;;4.80;100.00;103570.75;5072624;28;20025;-37
2022/01/23 06:00:19;;;;;;;27.73;20.47;;;;;;;4.69;100.00;103565.44;5072524;28;20066;-37
2022/01/23 06:02:44;;;;;;;;;;;;;;;4.75;100.00;103564.06;5073166;28;20029;-37
2022/01/23 06:05:10;;;;;;;24.17;18.47;;;;;;;4.67;100.00;103545.06;5072793;28;20280;-36
2022/01/23 06:07:35;;;;;;;26.90;19.97;;;;;;;4.58;100.00;103526.06;5073174;28;20035;-37
2022/01/23 06:10:01;;;;;;;26.40;19.40;;;;;;;4.73;100.00;103555.28;5072736;28;20384;-37
2022/01/23 06:12:26;;;;;;;23.13;18.20;;;;;;;4.83;100.00;103562.47;5072469;28;20050;-37
2022/01/23 06:14:52;;;;;;;24.30;18.33;;;;;;;4.86;100.00;103562.19;5072781;28;20032;-37
2022/01/23 06:17:17;;;;;;;26.57;19.60;;;;;;;4.81;100.00;103561.72;5072259;28;20032;-37
2022/01/23 06:19:43;;;;;;;29.05;20.55;;;;;;;4.70;100.00;103539.47;5072780;28;20028;-37
2022/01/23 06:22:09;;;;;;;25.73;19.53;;;;;;;4.87;100.00;103563.88;5072695;28;20453;-37
2022/01/23 06:24:36;;;;;;;24.70;19.40;;;;;;;4.89;100.00;103561.09;5075469;28;20035;-36
2022/01/23 06:27:02;;;;;;;26.45;20.95;;;;;;;4.81;100.00;103561.72;5076615;28;20021;-36
2022/01/23 06:29:32;;;;;;;24.13;19.00;;;;;;;4.80;100.00;103560.03;5076595;28;20090;-37
2022/01/23 06:31:59;;;;;;;27.58;21.45;;;;;;;4.83;100.00;103561.59;5077280;28;20032;-37
2022/01/23 06:34:25;;;;;;;24.88;19.95;;;;;;;4.77;100.00;103562.94;5075573;28;20453;-36
2022/01/23 06:36:52;;;;;;;;;;;;;;;4.86;100.00;103572.91;5075538;28;20047;-36
2022/01/23 06:39:18;;;;;;;23.95;18.20;;;;;;;4.90;100.00;103569.00;5075099;28;20016;-37
2022/01/23 06:41:43;;;;;;;20.60;16.30;;;;;;;4.90;100.00;103571.69;5075093;28;20028;-37
2022/01/23 06:44:10;;;;;;;23.53;18.70;;;;;;;4.93;100.00;103572.41;5075528;28;20100;-37
2022/01/23 06:46:36;;;;;;;25.27;19.65;;;;;;;4.96;100.00;103577.53;5074543;28;20119;-37
2022/01/23 06:49:01;;;;;;;21.13;16.77;;;;;;;4.99;100.00;103575.44;5074637;28;20478;-37
2022/01/23 06:51:27;;;;;;;25.42;18.15;;;;;;;5.00;100.00;103579.81;5074859;28;20117;-36
2022/01/23 06:53:52;;;;;;;24.17;19.40;;;;;;;5.01;100.00;103578.84;5074785;28;20033;-37
2022/01/23 06:56:18;;;;;;;26.17;18.50;;;;;;;4.97;100.00;103579.22;5074316;28;20040;-37
2022/01/23 06:58:44;;;;;;;27.75;20.63;;;;;;;4.91;100.00;103570.69;5074684;28;20024;-37
2022/01/23 07:01:10;;;;;;;30.05;21.83;;;;;;;4.93;100.00;103581.31;5074434;28;20032;-37
2022/01/23 07:03:36;;;;;;;27.85;20.98;;;;;;;4.93;100.00;103588.50;5075876;28;20421;-37
2022/01/23 07:06:02;;;;;;;26.25;17.92;;;;;;;4.95;100.00;103581.19;5075008;28;20453;-37
2022/01/23 07:08:27;;;;;;;;;;;;;;;5.04;100.00;103599.19;5074706;28;20021;-37
2022/01/23 07:10:52;;;;;;;24.77;19.58;;;;;;;4.85;100.00;103576.59;5074434;28;19908;-36
2022/01/23 07:13:18;;;;;;;23.90;17.77;;;;;;;5.03;100.00;103600.19;5074698;28;20028;-37
2022/01/23 07:15:43;;;;;;;25.57;19.23;;;;;;;4.98;100.00;103599.69;5075474;28;20052;-37
2022/01/23 07:18:09;;;;;;;28.05;21.90;;;;;;;4.92;100.00;103603.72;5074820;28;20028;-36
2022/01/23 07:20:35;;;;;;;20.50;16.80;;;;;;;5.02;100.00;103596.63;5075202;28;20032;-37
2022/01/23 07:23:00;;;;;;;27.63;18.60;;;;;;;4.99;100.00;103610.31;5074792;28;20350;-38
2022/01/23 07:25:26;;;;;;;24.70;19.40;;;;;;;4.97;100.00;103606.88;5075036;28;20115;-37
2022/01/23 07:27:55;;;;;;;25.00;18.57;;;;;;;4.99;100.00;103615.66;5074521;28;20361;-38
2022/01/23 07:30:49;;;;;;;22.25;17.25;;;;;;;5.09;100.00;103623.81;5074454;28;20032;-37
2022/01/23 07:33:07;;;;;;;31.05;21.05;;;;;;;4.95;100.00;103626.78;5075089;28;20396;-37
2022/01/23 07:35:32;;;;;;;27.47;20.10;;;;;;;5.04;100.00;103628.69;5036039;28;1122530;-37
2022/01/23 07:37:58;;;;;;;26.85;19.65;;;;;;;5.01;100.00;103634.31;5074003;28;20708;-38
2022/01/23 07:40:23;;;;;;;30.17;20.67;;;;;;;4.98;100.00;103629.19;5091447;28;20020;-36
2022/01/23 07:42:49;;;;;;;23.77;18.70;;;;;;;5.00;100.00;103633.47;5075462;28;20024;-37
2022/01/23 07:45:14;;;;;;;34.37;20.97;;;;;;;4.86;100.00;103623.84;5075849;28;20115;-38
2022/01/23 07:47:40;;;;;;;25.37;19.63;;;;;;;5.03;100.00;103640.41;5074976;28;20781;-37
2022/01/23 07:50:08;;;;;;;29.58;20.58;;;;;;;4.94;100.00;103633.97;5075379;28;20081;-40
2022/01/23 07:52:37;;;;;;;27.73;21.20;;;;;;;4.99;100.00;103636.28;5074970;28;20036;-37
2022/01/23 07:55:08;;;;;;;28.85;21.83;;;;;;;4.93;100.00;103642.13;5075780;28;20024;-36
2022/01/23 07:57:33;;;;;;;27.45;20.63;;;;;;;4.97;100.00;103647.09;5074739;28;20515;-37
2022/01/23 08:00:00;;;;;;;27.57;20.67;;;;;;;4.91;100.00;103635.06;5075449;28;20052;-38
2022/01/23 08:02:25;;;;;;;28.58;21.92;;;;;;;4.96;100.00;103637.38;5074531;28;20029;-38
2022/01/23 08:04:51;;;;;;;27.48;21.25;;;;;;;4.99;100.00;103642.50;5075558;28;20063;-37
2022/01/23 08:07:31;;;;;;;26.50;19.33;;;;;;;5.02;100.00;103631.50;5074733;28;20120;-37
2022/01/23 08:10:02;;;;;;;25.00;19.08;;;;;;;5.10;100.00;103645.13;5074630;28;20028;-38
2022/01/23 08:12:29;;;;;;;24.75;18.45;;;;;;;5.13;100.00;103639.53;5074490;28;20028;-37
2022/01/23 08:14:56;;;;;;;28.25;20.88;;;;;;;5.03;100.00;103643.94;5074594;28;20031;-38
2022/01/23 08:17:24;;;;;;;23.52;18.88;;;;;;;5.15;100.00;103647.44;5074130;28;20090;-37
2022/01/23 08:19:51;;;;;;;22.00;17.48;;;;;;;5.18;100.00;103644.50;5074379;28;20104;-38
2022/01/23 08:22:17;;;;;;;25.67;19.67;;;;;;;5.15;100.00;103647.44;5074772;28;20111;-38
2022/01/23 08:24:42;;;;;;;30.67;22.30;;;;;;;5.18;100.00;103646.34;5074631;28;20475;-38
2022/01/23 08:27:08;;;;;;;25.03;18.80;;;;;;;5.06;100.00;103611.47;5074395;28;20028;-36
2022/01/23 08:29:33;;;;;;;28.20;21.07;;;;;;;5.25;100.00;103653.75;5074534;28;20025;-36
2022/01/23 08:31:58;;;;;;;27.33;19.87;;;;;;;5.26;100.00;103654.59;5074226;28;20050;-36
2022/01/23 08:34:23;;;;;;;26.87;20.70;;;;;;;5.27;100.00;103661.66;5073804;28;20519;-36
2022/01/23 08:36:49;;;;;;;28.23;19.27;;;;;;;5.32;100.00;103657.63;5073901;28;20033;-37
2022/01/23 08:39:17;;;;;;;26.20;18.93;;;;;;;5.11;100.00;103620.00;5074086;28;20024;-37
2022/01/23 08:41:51;;;;;;;27.60;19.67;;;;;;;5.33;100.00;103664.69;5074172;28;20131;-37
2022/01/23 08:44:22;;;;;;;25.33;19.17;;;;;;;5.33;100.00;103653.97;5073729;28;20032;-37
2022/01/23 08:46:48;;;;;;;29.73;21.90;;;;;;;5.18;100.00;103636.47;5073145;28;20379;-37
2022/01/23 08:49:17;;;;;;;28.73;20.73;;;;;;;5.36;100.00;103667.09;5074153;28;20024;-37
2022/01/23 08:51:43;;;;;;;27.92;21.65;;;;;;;5.18;100.00;103644.50;5073418;28;20058;-37
2022/01/23 08:54:08;;;;;;;28.40;21.55;;;;;;;5.31;100.00;103663.94;5073901;28;20065;-37
2022/01/23 08:56:34;;;;;;;28.67;21.13;;;;;;;5.33;100.00;103664.69;5073897;28;20036;-37
2022/01/23 08:58:59;;;;;;;30.10;23.17;;;;;;;5.27;100.00;103673.25;5074198;28;20048;-37
2022/01/23 09:01:25;;;;;;;28.57;19.67;;;;;;;5.38;100.00;103672.38;5071973;28;20431;-37
2022/01/23 09:03:51;;;;;;;28.60;21.88;;;;;;;5.33;100.00;103672.75;5074106;28;20029;-36
2022/01/23 09:06:17;;;;;;;26.98;20.67;;;;;;;5.38;100.00;103672.38;5073471;28;20032;-36
2022/01/23 09:08:42;;;;;;;27.23;20.83;;;;;;;5.41;100.00;103681.00;5074004;28;20029;-36
2022/01/23 09:11:13;;;;;;;35.00;23.57;;;;;;;5.36;100.00;103677.84;5073503;28;20072;-36
2022/01/23 09:16:05;;;;;;;29.90;22.25;;;;;;;5.47;100.00;103674.28;5073126;28;20072;-36
2022/01/23 09:18:30;;;;;;;28.63;22.38;;;;;;;5.43;100.00;103665.63;5072948;28;20037;-36
2022/01/23 09:20:56;;;;;;;33.73;24.50;;;;;;;5.41;100.00;103670.25;5073302;28;20040;-42
2022/01/23 09:23:21;;;;;;;27.47;20.40;;;;;;;5.51;100.00;103670.34;5073358;28;20035;-36
2022/01/23 09:25:47;;;;;;;34.80;23.17;;;;;;;5.45;100.00;103670.00;5073100;28;20460;-36
2022/01/23 09:28:14;;;;;;;27.73;21.20;;;;;;;5.46;99.78;103671.72;5072872;28;20111;-36
2022/01/23 09:30:45;;;;;;;26.58;20.50;;;;;;;5.48;100.00;103675.13;5073329;28;20025;-36
2022/01/23 09:33:11;;;;;;;31.05;22.85;;;;;;;5.45;99.92;103670.00;5073143;28;20043;-36
2022/01/23 09:35:36;;;;;;;31.70;22.42;;;;;;;5.45;100.00;103673.53;5073148;28;20052;-36
2022/01/23 09:38:02;;;;;;;29.77;21.47;;;;;;;5.53;100.00;103672.91;5073575;28;20024;-36
2022/01/23 09:40:27;;;;;;;31.20;22.17;;;;;;;5.52;100.00;103672.06;5073860;28;20726;-36
2022/01/23 09:43:07;;;;;;;30.17;21.43;;;;;;;5.57;100.00;103679.72;5073060;28;20029;-36
2022/01/23 09:45:34;;;;;;;29.92;22.98;;;;;;;5.50;99.78;103683.91;5073152;28;20021;-36
2022/01/23 09:48:00;;;;;;;;;;;;;;;5.60;100.00;103674.94;5073361;28;20021;-36
2022/01/23 09:50:26;;;;;;;24.52;19.75;;;;;;;5.58;100.00;103673.38;5073012;28;20002;-36
2022/01/23 09:52:53;;;;;;;33.55;24.98;;;;;;;5.60;99.80;103679.47;5072954;28;20449;-36
2022/01/23 09:55:20;;;;;;;33.95;25.25;;;;;;;5.59;100.00;103686.66;5073136;28;20063;-36
2022/01/23 09:57:47;;;;;;;;;;;;;;;5.70;100.00;103688.44;5073643;28;20028;-36
2022/01/23 10:00:14;;;;;;;;;;;;;;;5.72;100.00;103694.56;5073971;28;19912;-36
2022/01/23 10:02:40;;;;;;;33.10;24.42;;;;;;;5.57;99.91;103682.41;5072404;28;20383;-36
2022/01/23 10:05:07;;;;;;;27.45;21.60;;;;;;;5.73;100.00;103688.19;5073430;28;20151;-36
2022/01/23 10:07:41;;;;;;;26.48;21.00;;;;;;;5.64;100.00;103676.38;5072676;28;20089;-38
2022/01/23 10:10:15;;;;;;;32.92;23.80;;;;;;;5.80;99.28;103699.25;5073344;28;20028;-36
2022/01/23 10:12:48;;;;;;;36.00;24.98;;;;;;;5.83;99.67;103697.16;5073093;28;20055;-36
2022/01/23 10:15:14;;;;;;;38.15;25.80;;;;;;;5.84;98.91;103695.34;5073293;28;20081;-36
2022/01/23 10:17:39;;;;;;;36.77;25.27;;;;;;;5.77;98.78;103678.91;5072357;28;20439;-36
2022/01/23 10:20:07;;;;;;;32.70;24.80;;;;;;;5.88;98.65;103689.56;5072856;28;20076;-36
2022/01/23 10:22:34;;;;;;;33.63;25.45;;;;;;;5.83;99.29;103686.44;5072026;28;20055;-36
2022/01/23 10:25:18;;;;;;;29.70;23.17;;;;;;;5.94;99.17;103686.38;5072583;28;20025;-36
2022/01/23 10:27:51;;;;;;;30.05;21.35;;;;;;;6.01;98.70;103686.72;5072821;28;20601;-36
2022/01/23 10:30:19;;;;;;;32.88;23.70;;;;;;;5.94;98.29;103683.69;5072795;28;20081;-36
2022/01/23 10:32:59;;;;;;;39.55;27.13;;;;;;;5.81;98.99;103655.34;5072577;28;20120;-36
2022/01/23 10:35:25;;;;;;;33.35;25.05;;;;;;;6.00;98.67;103671.56;5071546;28;20053;-37
2022/01/23 10:37:52;;;;;;;32.60;24.20;;;;;;;5.97;97.75;103682.59;5072781;28;20044;-36
2022/01/23 10:40:35;;;;;;;34.42;25.60;;;;;;;5.92;98.38;103672.25;5072493;28;20024;-36
2022/01/23 10:50:49;;;;;;;32.67;23.98;;;;;;;5.99;98.19;103664.50;5072705;28;20033;-37
2022/01/23 10:53:15;;;;;;;35.30;27.05;;;;;;;6.10;98.41;103688.63;5072309;28;20461;-37
2022/01/23 10:55:42;;;;;;;31.03;23.63;;;;;;;6.16;98.18;103665.75;5072864;28;20082;-37
2022/01/23 10:58:19;;;;;;;35.20;25.63;;;;;;;6.22;97.69;103678.66;5072489;28;20024;-36
2022/01/23 11:00:44;;;;;;;34.03;24.77;;;;;;;6.23;97.54;103680.34;5072516;28;20025;-36
2022/01/23 11:03:17;;;;;;;35.33;25.37;;;;;;;6.17;97.66;103679.03;5072171;28;20036;-38
2022/01/23 11:05:44;;;;;;;34.17;25.08;;;;;;;6.17;97.25;103676.34;5072616;28;20283;-36
2022/01/23 11:08:30;;;;;;;31.05;23.92;;;;;;;6.32;97.40;103676.00;5082414;28;20016;-36
2022/01/23 11:11:00;;;;;;;36.57;26.50;;;;;;;6.28;97.32;103675.41;5095064;28;20445;-36
2022/01/23 11:19:30;;;;;;;33.67;25.33;;;;;;;6.33;97.77;103662.44;5096335;28;20003;-36
2022/01/23 11:21:59;;;;;;;36.35;24.75;;;;;;;6.35;96.70;103665.84;5095763;28;20038;-36
2022/01/23 11:24:34;;;;;;;33.85;23.23;;;;;;;6.40;97.62;103652.84;5096049;28;20058;-36
2022/01/23 11:27:02;;;;;;;35.13;26.55;;;;;;;6.42;97.59;103661.63;5095823;28;20464;-36
2022/01/23 11:29:27;;;;;;;37.97;28.25;;;;;;;6.39;97.87;103653.84;5096113;28;20027;-37
2022/01/23 11:31:53;;;;;;;35.23;26.07;;;;;;;6.33;96.66;103657.06;5094480;28;20028;-37
2022/01/23 11:34:20;;;;;;;34.43;24.63;;;;;;;6.40;97.10;103652.84;5095902;28;20346;-37
2022/01/23 11:36:46;;;;;;;34.83;26.60;;;;;;;6.37;96.76;103653.13;5096058;28;20047;-37
2022/01/23 11:39:36;;;;;;;32.43;23.13;;;;;;;6.48;97.66;103648.63;5095820;28;20384;-37
2022/01/23 11:50:47;;;;;;;38.85;26.52;;;;;;;6.58;96.97;103644.97;5096139;28;20061;-36
2022/01/23 11:56:37;;;;;;;36.40;25.60;;;;;;;6.64;98.00;103633.72;5095868;28;20039;-35
2022/01/23 11:59:09;;;;;;;37.40;25.50;;;;;;;6.60;96.66;103639.50;5094882;28;20493;-35
2022/01/23 12:01:34;;;;;;;37.95;25.17;;;;;;;6.55;96.36;103639.06;5095189;28;20384;-36
2022/01/23 12:04:06;;;;;;;32.53;22.00;;;;;;;6.67;97.43;103643.31;5095173;28;20034;-36
2022/01/23 12:06:31;;;;;;;32.25;23.55;;;;;;;6.63;97.09;103640.03;5095376;28;20023;-36
2022/01/23 12:09:19;;;;;;;34.80;23.88;;;;;;;6.64;97.03;103631.03;5095101;28;20024;-36
2022/01/23 12:18:25;;;;;;;28.95;22.65;;;;;;;6.64;96.47;103622.94;5052534;28;20048;-36
2022/01/23 12:20:52;;;;;;;35.55;23.38;;;;;;;6.55;97.28;103614.84;5034721;28;20607;-36
2022/01/23 12:23:18;;;;;;;36.15;26.38;;;;;;;6.62;97.07;103624.91;5052134;28;20048;-36
2022/01/23 12:25:48;;;;;;;;;;;;;;;6.71;96.97;103628.63;5052691;28;20095;-37
2022/01/23 12:28:28;;;;;;;35.75;24.38;;;;;;;6.52;97.03;103610.59;5052175;28;20424;-36
2022/01/23 12:31:13;;;;;;;38.03;25.67;;;;;;;6.59;97.17;103624.34;5052614;28;20032;-36
2022/01/23 12:33:49;;;;;;;29.58;21.00;;;;;;;6.68;97.65;103613.59;5052383;28;20033;-36
2022/01/23 12:36:14;;;;;;;32.10;23.75;;;;;;;6.60;97.24;103608.06;5052877;28;20045;-36
2022/01/23 12:38:46;;;;;;;37.97;26.43;;;;;;;6.51;96.43;103616.97;5052699;28;20045;-36
2022/01/23 12:41:21;;;;;;;34.50;23.70;;;;;;;6.48;97.06;103603.78;5052816;28;20116;-37
2022/01/23 12:43:46;;;;;;;34.97;24.85;;;;;;;6.51;97.50;103610.72;5051927;28;20033;-36
2022/01/23 12:46:23;;;;;;;34.80;25.60;;;;;;;6.55;97.53;103606.78;5052322;28;20040;-36
2022/01/23 12:48:49;;;;;;;32.38;24.23;;;;;;;6.45;96.92;103590.63;5052003;28;20113;-36
2022/01/23 12:51:17;;;;;;;35.35;24.85;;;;;;;6.56;97.91;103609.34;5068143;28;20047;-36
2022/01/23 12:53:45;;;;;;;37.20;24.98;;;;;;;6.55;97.01;103607.63;5094691;28;20384;-36
2022/01/23 12:56:43;;;;;;;35.63;24.38;;;;;;;6.67;97.15;103606.53;5093973;28;20043;-36
2022/01/23 12:59:12;;;;;;;30.85;21.60;;;;;;;6.67;96.50;103597.59;5012371;28;20522;-36
2022/01/23 13:01:43;;;;;;;32.10;21.92;;;;;;;6.71;97.22;103593.66;5011741;28;20099;-37
2022/01/23 13:04:08;;;;;;;33.10;24.15;;;;;;;6.69;97.04;103599.19;5012466;28;20414;-37
2022/01/23 13:06:40;;;;;;;34.13;25.33;;;;;;;6.65;97.09;103592.38;5011905;28;20121;-36
2022/01/23 13:09:18;;;;;;;30.75;23.00;;;;;;;6.66;96.59;103577.94;5012196;28;20055;-36
2022/01/23 13:12:10;;;;;;;29.88;21.70;;;;;;;6.72;97.15;103585.44;5011533;28;20061;-37
2022/01/23 13:14:54;;;;;;;31.45;22.88;;;;;;;6.70;97.07;103586.59;5011634;28;20069;-36
2022/01/23 13:31:38;;;;;;;41.28;25.88;;;;;;;6.66;96.51;103587.84;5012066;28;20049;-37
2022/01/23 13:34:16;;;;;;;39.45;25.95;;;;;;;6.56;96.71;103560.09;5011378;28;20037;-37
2022/01/23 13:37:02;;;;;;;34.13;24.60;;;;;;;6.68;97.19;103580.47;5092800;28;20040;-37
2022/01/23 13:39:34;;;;;;;35.55;26.70;;;;;;;6.65;96.53;103583.47;5093821;28;20028;-37
2022/01/23 13:53:28;;;;;;;39.58;27.25;;;;;;;6.59;97.45;103581.34;5011696;28;20049;-37
2022/01/23 13:58:39;;;;;;;41.15;32.63;;;;;;;6.61;97.55;103574.81;5011239;28;20121;-37
2022/01/23 14:04:03;;;;;;;39.35;29.08;;;;;;;6.60;97.52;103572.28;4972459;28;20031;-36
2022/01/23 14:06:28;;;;;;;31.02;23.38;;;;;;;6.60;96.58;103562.38;4971924;28;20027;-37
2022/01/23 14:09:01;;;;;;;30.27;22.47;;;;;;;6.59;97.75;103557.97;4972356;28;20102;-36
2022/01/23 14:11:27;;;;;;;40.92;28.83;;;;;;;6.52;96.84;103556.81;4971937;28;20289;-37
2022/01/23 14:13:52;;;;;;;37.00;28.05;;;;;;;6.58;97.97;103558.94;4955669;28;20156;-37
2022/01/23 14:16:25;;;;;;;38.17;27.20;;;;;;;6.47;97.43;103550.16;4972367;28;20042;-37
2022/01/23 14:18:50;;;;;;;39.75;27.50;;;;;;;6.51;97.49;103556.97;4972413;28;20031;-37
2022/01/23 14:21:16;;;;;;;41.53;28.67;;;;;;;6.49;97.74;103554.44;4982858;28;20054;-36
2022/01/23 14:26:37;;;;;;;45.25;29.00;;;;;;;6.61;97.83;103566.75;5070852;28;20717;-36
2022/01/23 14:29:05;;;;;;;35.97;25.77;;;;;;;6.59;96.98;103570.56;5070359;28;20040;-37
2022/01/23 14:31:40;;;;;;;34.35;26.15;;;;;;;6.53;96.20;103580.03;5070593;28;20033;-37
2022/01/23 14:34:23;;;;;;;39.35;27.67;;;;;;;6.58;96.88;103591.22;5070609;28;20380;-38
2022/01/23 14:36:56;;;;;;;36.35;24.50;;;;;;;6.48;96.74;103571.53;5070505;28;20086;-37
2022/01/23 14:39:23;;;;;;;31.95;23.45;;;;;;;6.54;96.90;103579.06;5070665;28;20032;-39
2022/01/23 14:41:48;;;;;;;29.88;22.08;;;;;;;6.42;95.04;103566.69;5070402;28;20029;-37
2022/01/23 14:44:25;;;;;;;20.70;17.00;;;;;;;6.62;96.11;103575.66;5069985;28;20035;-37
2022/01/23 14:46:53;;;;;;;29.73;22.50;;;;;;;6.54;95.74;103586.25;5070174;28;20037;-37
2022/01/23 14:49:25;;;;;;;32.25;23.05;;;;;;;6.43;96.06;103566.56;5069625;28;20083;-37
2022/01/23 14:51:52;;;;;;;34.67;22.17;;;;;;;6.55;95.96;103574.53;5070101;28;20082;-36
2022/01/23 14:54:20;;;;;;;25.75;19.73;;;;;;;6.55;95.33;103578.06;5070090;28;20404;-36
2022/01/23 14:56:45;;;;;;;30.45;20.70;;;;;;;6.50;93.89;103571.41;5069776;28;20028;-36